Terminal Aerodrome Forecast
Issued by NWS

Home | Current Version | Previous Version | Text Only | Print | Product List | Glossary On
Versions: 1 2 3 4 5 6 7 8 9 10 11 12 13 14 15
158
FTUS42 KMLB 191127
TAFLEE
TAF
KLEE 191127Z 1912/2012 26003KT P6SM SCT040
     FM191500 34004KT P6SM SCT010 BKN025
     FM191700 33007KT P6SM SCT030
     FM200100 05004KT P6SM SKC=

USA.gov is the U.S. government's official web portal to all federal, state and local government web resources and services.